Terminal Aerodrome Forecast
Issued by NWS Spokane, WA

Home | Current Version | Previous Version | Text Only | Print | Product List | Glossary On
Versions: 1 2 3 4 5 6 7 8 9 10 11 12 13 14 15 16 17 18 19 20 21 22 23 24 25 26 27
000
FTUS46 KOTX 022320
TAFLWS
TAF
KLWS 022320Z 0300/0324 30010KT P6SM -SHRA BKN060 OVC090
     FM030800 VRB04KT P6SM SCT060 BKN090 OVC120
     FM031900 32008KT P6SM FEW080 SCT120=

USA.gov is the U.S. government's official web portal to all federal, state and local government web resources and services.